createdAt,value
2018-05-07T00:00:26.041Z,16.92
2018-05-07T00:01:26.070Z,16.80
2018-05-07T00:02:26.085Z,16.82
2018-05-07T00:03:26.113Z,16.70
2018-05-07T00:04:26.163Z,16.73
2018-05-07T00:05:26.149Z,16.81
2018-05-07T00:06:26.182Z,16.70
2018-05-07T00:07:26.198Z,16.74
2018-05-07T00:08:26.231Z,16.74
2018-05-07T00:09:26.269Z,16.69
2018-05-07T00:10:26.260Z,16.66
2018-05-07T00:11:26.275Z,16.73
2018-05-07T00:12:26.305Z,16.80
2018-05-07T00:13:26.328Z,16.73
2018-05-07T00:14:26.339Z,16.74
2018-05-07T00:15:26.363Z,16.67
2018-05-07T00:16:26.388Z,16.67
2018-05-07T00:17:26.401Z,16.69
2018-05-07T00:18:26.427Z,16.66
2018-05-07T00:19:26.450Z,16.63
2018-05-07T00:20:26.465Z,16.67
2018-05-07T00:21:26.497Z,16.65
2018-05-07T00:22:26.513Z,16.58
2018-05-07T00:23:26.530Z,16.67
2018-05-07T00:24:26.554Z,16.65
2018-05-07T00:25:26.573Z,16.48
2018-05-07T00:26:26.591Z,16.52
2018-05-07T00:27:26.623Z,16.55
2018-05-07T00:28:26.636Z,16.49
2018-05-07T00:29:26.662Z,16.48
2018-05-07T00:30:26.684Z,16.51
2018-05-07T00:31:26.707Z,16.45
2018-05-07T00:32:26.718Z,16.42
2018-05-07T00:33:26.747Z,16.39
2018-05-07T00:34:26.765Z,16.40
2018-05-07T00:35:26.792Z,16.45
2018-05-07T00:36:26.810Z,16.33
2018-05-07T00:37:26.822Z,16.27
2018-05-07T00:38:26.854Z,16.37
2018-05-07T00:39:26.865Z,16.30
2018-05-07T00:40:26.888Z,16.33
2018-05-07T00:41:26.914Z,16.29
2018-05-07T00:42:26.931Z,16.33
2018-05-07T00:43:26.956Z,16.30
2018-05-07T00:44:26.976Z,16.34
2018-05-07T00:45:26.994Z,16.27
2018-05-07T00:46:27.019Z,16.29
2018-05-07T00:47:27.037Z,16.22
2018-05-07T00:48:27.064Z,16.26
2018-05-07T00:49:27.076Z,16.22
2018-05-07T00:50:27.101Z,16.18
2018-05-07T00:51:27.175Z,16.16
2018-05-07T00:52:27.139Z,16.17
2018-05-07T00:53:27.168Z,16.11
2018-05-07T00:54:27.187Z,16.10
2018-05-07T00:55:27.205Z,16.10
2018-05-07T00:56:27.228Z,16.08
2018-05-07T00:57:27.249Z,16.08
2018-05-07T00:58:27.271Z,16.08
2018-05-07T00:59:27.289Z,16.08
2018-05-07T01:00:27.315Z,16.00
2018-05-07T01:01:27.333Z,15.98
2018-05-07T01:02:27.351Z,15.98
2018-05-07T01:03:27.370Z,15.96
2018-05-07T01:04:27.396Z,15.92
2018-05-07T01:05:27.418Z,15.99
2018-05-07T01:06:27.433Z,15.95
2018-05-07T01:07:27.463Z,15.93
2018-05-07T01:08:27.482Z,15.92
2018-05-07T01:09:27.501Z,15.91
2018-05-07T01:10:27.525Z,15.80
2018-05-07T01:11:27.538Z,15.86
2018-05-07T01:12:27.566Z,15.78
2018-05-07T01:13:27.582Z,15.80
2018-05-07T01:14:27.607Z,15.80
2018-05-07T01:15:27.629Z,15.75
2018-05-07T01:16:27.648Z,15.71
2018-05-07T01:17:27.672Z,15.75
2018-05-07T01:18:27.688Z,15.74
2018-05-07T01:19:27.708Z,15.75
2018-05-07T01:20:27.734Z,15.68
2018-05-07T01:21:27.746Z,15.63
2018-05-07T01:22:27.770Z,15.73
2018-05-07T01:23:27.794Z,15.68
2018-05-07T01:24:27.808Z,15.68
2018-05-07T01:25:27.838Z,15.65
2018-05-07T01:26:27.855Z,15.68
2018-05-07T01:27:27.873Z,15.68
2018-05-07T01:28:27.897Z,15.73
2018-05-07T01:29:27.923Z,15.60
2018-05-07T01:30:27.932Z,15.67
2018-05-07T01:31:27.965Z,15.59
2018-05-07T01:32:27.978Z,15.55
2018-05-07T01:33:28.005Z,15.53
2018-05-07T01:34:28.025Z,15.59
2018-05-07T01:35:28.042Z,15.59
2018-05-07T01:36:28.064Z,15.53
2018-05-07T01:37:28.083Z,15.60
2018-05-07T01:38:28.100Z,15.51
2018-05-07T01:39:28.133Z,15.44
2018-05-07T01:40:28.144Z,15.47
2018-05-07T01:41:28.166Z,15.45
2018-05-07T01:42:28.190Z,15.51
2018-05-07T01:43:28.203Z,15.51
2018-05-07T01:44:28.230Z,15.44
2018-05-07T01:45:28.251Z,15.44
2018-05-07T01:46:28.274Z,15.40
2018-05-07T01:47:28.290Z,15.43
2018-05-07T01:48:28.305Z,15.33
2018-05-07T01:49:28.335Z,15.33
2018-05-07T01:50:28.347Z,15.38
2018-05-07T01:51:28.372Z,15.35
2018-05-07T01:52:28.391Z,15.31
2018-05-07T01:53:28.419Z,15.38
2018-05-07T01:54:28.433Z,15.35
2018-05-07T01:55:28.457Z,15.33
2018-05-07T01:56:28.477Z,15.38
2018-05-07T01:57:28.496Z,15.31
2018-05-07T01:58:28.520Z,15.35
2018-05-07T01:59:28.537Z,15.35
2018-05-07T02:00:28.560Z,15.38
2018-05-07T02:01:28.579Z,15.40
2018-05-07T02:02:28.595Z,15.30
2018-05-07T02:03:28.625Z,15.23
2018-05-07T02:04:28.646Z,15.23
2018-05-07T02:05:28.663Z,15.16
2018-05-07T02:06:28.687Z,15.22
2018-05-07T02:07:28.705Z,15.23
2018-05-07T02:08:28.718Z,15.16
2018-05-07T02:09:28.748Z,15.15
2018-05-07T02:10:28.761Z,15.25
2018-05-07T02:11:28.791Z,15.15
2018-05-07T02:12:28.810Z,15.20
2018-05-07T02:13:28.822Z,15.25
2018-05-07T02:14:28.852Z,15.23
2018-05-07T02:15:28.865Z,15.20
2018-05-07T02:16:28.886Z,15.22
2018-05-07T02:17:28.910Z,15.27
2018-05-07T02:18:28.928Z,15.18
2018-05-07T02:19:28.952Z,15.20
2018-05-07T02:20:28.966Z,15.15
2018-05-07T02:21:28.989Z,15.16
2018-05-07T02:22:29.013Z,15.18
2018-05-07T02:23:29.038Z,15.15
2018-05-07T02:24:29.056Z,15.05
2018-05-07T02:25:29.069Z,15.04
2018-05-07T02:26:29.099Z,15.04
2018-05-07T02:27:29.110Z,14.98
2018-05-07T02:28:29.136Z,14.97
2018-05-07T02:29:29.154Z,14.89
2018-05-07T02:30:29.178Z,15.00
2018-05-07T02:31:29.203Z,15.00
2018-05-07T02:32:29.220Z,14.86
2018-05-07T02:33:29.242Z,14.93
2018-05-07T02:34:29.254Z,14.87
2018-05-07T02:35:29.284Z,14.95
2018-05-07T02:36:29.297Z,14.89
2018-05-07T02:37:29.323Z,14.89
2018-05-07T02:38:29.345Z,14.89
2018-05-07T02:39:29.363Z,14.93
2018-05-07T02:40:29.387Z,14.89
2018-05-07T02:41:29.401Z,14.87
2018-05-07T02:42:29.418Z,14.93
2018-05-07T02:43:29.448Z,14.93
2018-05-07T02:44:29.466Z,14.87
2018-05-07T02:45:29.479Z,14.90
2018-05-07T02:46:29.505Z,14.87
2018-05-07T02:47:29.525Z,14.87
2018-05-07T02:48:29.548Z,14.86
2018-05-07T02:49:29.567Z,14.77
2018-05-07T02:50:29.589Z,14.82
2018-05-07T02:51:29.603Z,14.79
2018-05-07T02:52:29.621Z,14.79
2018-05-07T02:53:29.650Z,14.79
2018-05-07T02:54:29.661Z,14.77
2018-05-07T02:55:29.687Z,14.70
2018-05-07T02:56:29.704Z,14.80
2018-05-07T02:57:29.729Z,14.80
2018-05-07T02:58:29.752Z,14.79
2018-05-07T02:59:29.763Z,14.77
2018-05-07T03:00:29.787Z,14.71
2018-05-07T03:01:29.813Z,14.67
2018-05-07T03:02:29.830Z,14.77
2018-05-07T03:03:29.849Z,14.66
2018-05-07T03:04:29.873Z,14.67
2018-05-07T03:05:29.889Z,14.66
2018-05-07T03:06:29.907Z,14.79
2018-05-07T03:07:29.930Z,14.80
2018-05-07T03:08:29.956Z,14.80
2018-05-07T03:09:29.972Z,14.71
2018-05-07T03:10:29.990Z,14.79
2018-05-07T03:11:30.015Z,14.70
2018-05-07T03:12:30.034Z,14.70
2018-05-07T03:13:30.053Z,14.63
2018-05-07T03:14:30.074Z,14.75
2018-05-07T03:15:30.091Z,14.70
2018-05-07T03:16:30.117Z,14.64
2018-05-07T03:17:30.192Z,14.60
2018-05-07T03:18:30.160Z,14.61
2018-05-07T03:19:30.170Z,14.63
2018-05-07T03:20:30.192Z,14.64
2018-05-07T03:21:30.216Z,14.64
2018-05-07T03:22:30.232Z,14.64
2018-05-07T03:23:30.251Z,14.61
2018-05-07T03:24:30.270Z,14.59
2018-05-07T03:25:30.297Z,14.61
2018-05-07T03:26:30.311Z,14.59
2018-05-07T03:27:30.340Z,14.56
2018-05-07T03:28:30.357Z,14.42
2018-05-07T03:29:30.373Z,14.48
2018-05-07T03:30:30.397Z,14.49
2018-05-07T03:31:30.421Z,14.56
2018-05-07T03:32:30.446Z,14.60
2018-05-07T03:33:30.457Z,14.60
2018-05-07T03:34:30.480Z,14.48
2018-05-07T03:35:30.493Z,14.57
2018-05-07T03:36:30.521Z,14.52
2018-05-07T03:37:30.604Z,14.46
2018-05-07T03:38:30.556Z,14.45
2018-05-07T03:39:30.580Z,14.45
2018-05-07T03:40:30.652Z,14.51
2018-05-07T03:41:30.621Z,14.51
2018-05-07T03:42:30.640Z,14.49
2018-05-07T03:43:30.684Z,14.46
2018-05-07T03:44:30.683Z,14.42
2018-05-07T03:45:30.693Z,14.42
2018-05-07T03:46:30.722Z,14.39
2018-05-07T03:47:30.740Z,14.39
2018-05-07T03:48:30.759Z,14.42
2018-05-07T03:49:30.782Z,14.30
2018-05-07T03:50:30.800Z,14.38
2018-05-07T03:51:30.818Z,14.36
2018-05-07T03:52:30.840Z,14.33
2018-05-07T03:53:30.858Z,14.39
2018-05-07T03:54:30.876Z,14.36
2018-05-07T03:55:30.904Z,14.28
2018-05-07T03:56:30.921Z,14.27
2018-05-07T03:57:30.942Z,14.28
2018-05-07T03:58:30.964Z,14.15
2018-05-07T03:59:30.975Z,14.31
2018-05-07T04:00:31.001Z,14.20
2018-05-07T04:01:31.018Z,14.20
2018-05-07T04:02:31.035Z,14.20
2018-05-07T04:03:31.064Z,14.19
2018-05-07T04:04:31.080Z,14.23
2018-05-07T04:05:31.101Z,14.16
2018-05-07T04:06:31.124Z,14.21
2018-05-07T04:07:31.136Z,14.20
2018-05-07T04:08:31.164Z,14.19
2018-05-07T04:09:31.174Z,14.24
2018-05-07T04:10:31.198Z,14.19
2018-05-07T04:11:31.221Z,14.23
2018-05-07T04:12:31.236Z,14.20
2018-05-07T04:13:31.264Z,14.19
2018-05-07T04:14:31.280Z,14.27
2018-05-07T04:15:31.299Z,14.20
2018-05-07T04:16:31.319Z,14.20
2018-05-07T04:17:31.355Z,14.24
2018-05-07T04:18:31.357Z,14.21
2018-05-07T04:19:31.381Z,14.20
2018-05-07T04:20:31.401Z,14.23
2018-05-07T04:21:31.424Z,14.20
2018-05-07T04:22:31.442Z,14.28
2018-05-07T04:23:31.504Z,14.26
2018-05-07T04:24:31.476Z,14.28
2018-05-07T04:25:31.503Z,14.26
2018-05-07T04:26:31.515Z,14.31
2018-05-07T04:27:31.547Z,14.27
2018-05-07T04:28:31.563Z,14.20
2018-05-07T04:29:31.575Z,14.30
2018-05-07T04:30:31.605Z,14.28
2018-05-07T04:31:31.615Z,14.27
2018-05-07T04:32:31.641Z,14.23
2018-05-07T04:33:31.656Z,14.23
2018-05-07T04:34:31.681Z,14.33
2018-05-07T04:35:31.698Z,14.33
2018-05-07T04:36:31.723Z,14.31
2018-05-07T04:37:31.783Z,14.34
2018-05-07T04:38:31.757Z,14.34
2018-05-07T04:39:31.775Z,14.26
2018-05-07T04:40:31.796Z,14.33
2018-05-07T04:41:31.821Z,14.38
2018-05-07T04:42:31.843Z,14.33
2018-05-07T04:43:31.855Z,14.34
2018-05-07T04:44:31.883Z,14.44
2018-05-07T04:45:31.897Z,14.41
2018-05-07T04:46:31.917Z,14.38
2018-05-07T04:47:31.943Z,14.38
2018-05-07T04:48:31.958Z,14.44
2018-05-07T04:49:31.975Z,14.51
2018-05-07T04:50:32.004Z,14.44
2018-05-07T04:51:32.024Z,14.44
2018-05-07T04:52:32.040Z,14.45
2018-05-07T04:53:32.058Z,14.48
2018-05-07T04:54:32.081Z,14.48
2018-05-07T04:55:32.099Z,14.41
2018-05-07T04:56:32.114Z,14.45
2018-05-07T04:57:32.143Z,14.57
2018-05-07T04:58:32.155Z,14.59
2018-05-07T04:59:32.183Z,14.64
2018-05-07T05:00:32.202Z,14.57
2018-05-07T05:01:32.217Z,14.60
2018-05-07T05:02:32.242Z,14.64
2018-05-07T05:03:32.255Z,14.69
2018-05-07T05:04:32.285Z,14.69
2018-05-07T05:05:32.305Z,14.71
2018-05-07T05:06:32.321Z,14.69
2018-05-07T05:07:32.344Z,14.70
2018-05-07T05:08:32.357Z,14.79
2018-05-07T05:09:32.381Z,14.77
2018-05-07T05:10:32.403Z,14.79
2018-05-07T05:11:32.416Z,14.85
2018-05-07T05:12:32.437Z,14.83
2018-05-07T05:13:32.461Z,14.89
2018-05-07T05:14:32.484Z,14.93
2018-05-07T05:15:32.496Z,14.89
2018-05-07T05:16:32.521Z,15.01
2018-05-07T05:17:32.538Z,14.94
2018-05-07T05:18:32.556Z,15.01
2018-05-07T05:19:32.584Z,14.95
2018-05-07T05:20:32.598Z,15.04
2018-05-07T05:21:32.705Z,15.13
2018-05-07T05:22:32.638Z,15.31
2018-05-07T05:23:32.662Z,15.67
2018-05-07T05:24:32.688Z,15.98
2018-05-07T05:25:32.700Z,16.29
2018-05-07T05:26:32.722Z,16.51
2018-05-07T05:27:32.739Z,16.57
2018-05-07T05:28:32.756Z,16.82
2018-05-07T05:29:32.786Z,16.97
2018-05-07T05:30:32.803Z,16.91
2018-05-07T05:31:32.822Z,17.00
2018-05-07T05:32:32.847Z,17.02
2018-05-07T05:33:32.860Z,17.17
2018-05-07T05:34:32.886Z,17.20
2018-05-07T05:35:32.907Z,17.39
2018-05-07T05:36:32.922Z,17.38
2018-05-07T05:37:32.954Z,17.39
2018-05-07T05:38:32.963Z,17.50
2018-05-07T05:39:32.989Z,17.52
2018-05-07T05:40:33.015Z,17.52
2018-05-07T05:41:33.037Z,17.65
2018-05-07T05:42:33.057Z,17.87
2018-05-07T05:43:33.126Z,17.96
2018-05-07T05:44:33.102Z,18.03
2018-05-07T05:45:33.113Z,17.96
2018-05-07T05:46:33.143Z,18.01
2018-05-07T05:47:33.157Z,17.99
2018-05-07T05:48:33.178Z,18.13
2018-05-07T05:49:33.208Z,18.27
2018-05-07T05:50:33.222Z,18.39
2018-05-07T05:51:33.253Z,18.45
2018-05-07T05:52:33.273Z,18.61
2018-05-07T05:53:33.287Z,18.79
2018-05-07T05:54:33.321Z,18.61
2018-05-07T05:55:33.332Z,18.97
2018-05-07T05:56:33.354Z,18.86
2018-05-07T05:57:33.384Z,18.86
2018-05-07T05:58:33.404Z,18.96
2018-05-07T05:59:33.425Z,19.23
2018-05-07T06:00:33.443Z,19.31
2018-05-07T06:01:33.474Z,19.64
2018-05-07T06:02:33.499Z,19.75
2018-05-07T06:03:33.515Z,19.80
2018-05-07T06:04:33.541Z,19.79
2018-05-07T06:05:33.557Z,19.83
2018-05-07T06:06:33.583Z,20.02
2018-05-07T06:07:33.609Z,20.18
2018-05-07T06:08:33.631Z,20.22
2018-05-07T06:09:33.652Z,20.02
2018-05-07T06:10:33.672Z,20.00
2018-05-07T06:11:33.700Z,20.02
2018-05-07T06:12:33.725Z,20.22
2018-05-07T06:13:33.743Z,20.20
2018-05-07T06:14:33.857Z,20.25
2018-05-07T06:15:33.789Z,20.41
2018-05-07T06:16:33.882Z,20.56
2018-05-07T06:17:33.844Z,20.49
2018-05-07T06:18:33.868Z,20.05
2018-05-07T06:19:33.884Z,19.89
2018-05-07T06:20:33.914Z,19.74
2018-05-07T06:21:33.933Z,20.05
2018-05-07T06:22:33.956Z,20.05
2018-05-07T06:23:33.989Z,20.16
2018-05-07T06:24:34.012Z,20.25
2018-05-07T06:25:34.028Z,20.25
2018-05-07T06:26:34.061Z,20.35
2018-05-07T06:27:34.083Z,20.46
2018-05-07T06:28:34.104Z,20.44
2018-05-07T06:29:34.128Z,20.48
2018-05-07T06:30:34.150Z,20.46
2018-05-07T06:31:34.183Z,20.64
2018-05-07T06:32:34.199Z,20.97
2018-05-07T06:33:34.232Z,20.96
2018-05-07T06:34:34.248Z,21.09
2018-05-07T06:35:34.282Z,21.22
2018-05-07T06:36:34.308Z,21.52
2018-05-07T06:37:34.323Z,21.41
2018-05-07T06:38:34.356Z,20.86
2018-05-07T06:39:34.374Z,20.60
2018-05-07T06:40:34.399Z,20.71
2018-05-07T06:41:34.428Z,20.49
2018-05-07T06:42:34.449Z,20.66
2018-05-07T06:43:34.476Z,21.01
2018-05-07T06:44:34.507Z,20.94
2018-05-07T06:45:34.530Z,20.76
2018-05-07T06:46:34.554Z,20.30
2018-05-07T06:47:34.595Z,20.83
2018-05-07T06:48:34.604Z,21.38
2018-05-07T06:49:34.631Z,21.46
2018-05-07T06:50:34.654Z,21.68
2018-05-07T06:51:34.683Z,21.89
2018-05-07T06:52:34.713Z,21.89
2018-05-07T06:53:34.733Z,22.04
2018-05-07T06:54:34.760Z,21.94
2018-05-07T06:55:34.784Z,21.90
2018-05-07T06:56:34.815Z,21.64
2018-05-07T06:57:34.846Z,21.40
2018-05-07T06:58:34.861Z,21.48
2018-05-07T06:59:34.885Z,21.28
2018-05-07T07:00:34.911Z,21.83
2018-05-07T07:01:34.946Z,22.15
2018-05-07T07:02:35.067Z,22.49
2018-05-07T07:03:35.005Z,22.34
2018-05-07T07:04:35.017Z,22.54
2018-05-07T07:05:35.054Z,22.57
2018-05-07T07:06:35.070Z,22.94
2018-05-07T07:07:35.105Z,22.79
2018-05-07T07:08:35.299Z,22.85
2018-05-07T07:09:35.149Z,22.67
2018-05-07T07:10:35.185Z,22.69
2018-05-07T07:11:35.204Z,22.66
2018-05-07T07:12:35.233Z,22.86
2018-05-07T07:13:35.268Z,22.76
2018-05-07T07:14:35.285Z,22.76
2018-05-07T07:15:35.317Z,23.09
2018-05-07T07:16:35.341Z,22.96
2018-05-07T07:17:35.365Z,23.29
2018-05-07T07:18:35.396Z,23.45
2018-05-07T07:19:35.428Z,23.35
2018-05-07T07:20:35.458Z,23.53
2018-05-07T07:21:35.479Z,23.71
2018-05-07T07:22:35.508Z,23.75
2018-05-07T07:23:35.539Z,23.37
2018-05-07T07:24:35.559Z,22.66
2018-05-07T07:25:35.597Z,22.63
2018-05-07T07:26:35.625Z,23.18
2018-05-07T07:27:35.647Z,23.44
2018-05-07T07:28:35.674Z,23.59
2018-05-07T07:29:35.708Z,23.87
2018-05-07T07:30:35.737Z,23.97
2018-05-07T07:31:35.763Z,24.18
2018-05-07T07:32:35.784Z,23.45
2018-05-07T07:33:35.814Z,22.76
2018-05-07T07:34:35.847Z,22.61
2018-05-07T07:35:35.876Z,23.25
2018-05-07T07:36:35.906Z,23.85
2018-05-07T07:37:35.930Z,23.89
2018-05-07T07:38:35.955Z,23.94
2018-05-07T07:39:35.994Z,23.74
2018-05-07T07:40:36.014Z,23.59
2018-05-07T07:41:36.046Z,23.53
2018-05-07T07:42:36.077Z,23.92
2018-05-07T07:43:36.100Z,24.22
2018-05-07T07:44:36.137Z,24.78
2018-05-07T07:45:36.155Z,24.86
2018-05-07T07:46:36.187Z,25.19
2018-05-07T07:47:36.218Z,25.24
2018-05-07T07:48:36.242Z,25.32
2018-05-07T07:49:36.281Z,25.37
2018-05-07T07:50:36.307Z,25.52
2018-05-07T07:51:36.331Z,25.45
2018-05-07T07:52:36.357Z,25.47
2018-05-07T07:53:36.419Z,25.22
2018-05-07T07:54:36.422Z,25.12
2018-05-07T07:55:36.448Z,25.39
2018-05-07T07:56:36.483Z,25.29
2018-05-07T07:57:36.506Z,25.29
2018-05-07T07:58:36.537Z,25.69
2018-05-07T07:59:36.570Z,25.42
2018-05-07T08:00:36.593Z,25.79
2018-05-07T08:01:36.691Z,25.66
2018-05-07T08:02:36.657Z,25.76
2018-05-07T08:03:36.697Z,26.17
2018-05-07T08:04:36.733Z,26.20
2018-05-07T08:05:36.743Z,26.15
2018-05-07T08:06:36.781Z,26.20
2018-05-07T08:07:36.808Z,26.03
2018-05-07T08:08:36.836Z,26.06
2018-05-07T08:09:36.870Z,25.91
2018-05-07T08:10:36.902Z,25.93
2018-05-07T08:11:36.925Z,26.20
2018-05-07T08:12:36.961Z,26.27
2018-05-07T08:13:36.987Z,26.71
2018-05-07T08:14:37.016Z,26.82
2018-05-07T08:15:37.054Z,26.52
2018-05-07T08:16:37.087Z,27.00
2018-05-07T08:17:37.108Z,26.59
2018-05-07T08:18:37.145Z,26.97
2018-05-07T08:19:37.181Z,27.31
2018-05-07T08:20:37.327Z,27.28
2018-05-07T08:21:37.238Z,27.45
2018-05-07T08:22:37.267Z,27.31
2018-05-07T08:23:37.294Z,27.13
2018-05-07T08:24:37.394Z,27.09
2018-05-07T08:25:37.365Z,27.15
2018-05-07T08:26:37.389Z,27.55
2018-05-07T08:27:37.419Z,27.86
2018-05-07T08:28:37.454Z,27.90
2018-05-07T08:29:37.480Z,27.71
2018-05-07T08:30:37.511Z,27.01
2018-05-07T08:31:37.546Z,26.74
2018-05-07T08:32:37.577Z,26.41
2018-05-07T08:33:37.604Z,26.11
2018-05-07T08:34:37.640Z,26.68
2018-05-07T08:35:37.676Z,26.97
2018-05-07T08:36:37.717Z,27.09
2018-05-07T08:37:37.740Z,27.38
2018-05-07T08:38:37.769Z,27.68
2018-05-07T08:39:37.794Z,27.81
2018-05-07T08:40:37.824Z,28.26
2018-05-07T08:41:37.860Z,28.46
2018-05-07T08:42:37.887Z,28.17
2018-05-07T08:43:37.924Z,28.14
2018-05-07T08:44:37.953Z,28.17
2018-05-07T08:45:37.982Z,27.75
2018-05-07T08:46:38.020Z,28.02
2018-05-07T08:47:38.046Z,28.03
2018-05-07T08:48:38.161Z,28.72
2018-05-07T08:49:38.173Z,28.26
2018-05-07T08:50:38.141Z,28.18
2018-05-07T08:51:38.175Z,28.54
2018-05-07T08:52:38.206Z,27.86
2018-05-07T08:53:38.241Z,28.16
2018-05-07T08:54:38.269Z,28.33
2018-05-07T08:55:38.300Z,28.17
2018-05-07T08:56:38.333Z,27.08
2018-05-07T08:57:38.363Z,27.26
2018-05-07T08:58:38.391Z,27.24
2018-05-07T08:59:38.435Z,27.08
2018-05-07T09:00:38.460Z,27.66
2018-05-07T09:01:38.491Z,28.01
2018-05-07T09:02:38.528Z,28.24
2018-05-07T09:03:38.549Z,27.41
2018-05-07T09:04:38.588Z,27.11
2018-05-07T09:05:38.623Z,27.33
2018-05-07T09:06:38.645Z,27.21
2018-05-07T09:07:38.685Z,27.62
2018-05-07T09:08:38.716Z,27.15
2018-05-07T09:09:38.750Z,27.36
2018-05-07T09:10:38.781Z,27.24
2018-05-07T09:11:38.804Z,27.66
2018-05-07T09:12:38.841Z,28.05
2018-05-07T09:13:38.887Z,28.54
2018-05-07T09:14:38.901Z,29.11
2018-05-07T09:15:38.935Z,29.06
2018-05-07T09:16:38.969Z,29.48
2018-05-07T09:17:38.999Z,29.52
2018-05-07T09:18:39.030Z,30.04
2018-05-07T09:19:39.063Z,30.09
2018-05-07T09:20:39.098Z,29.23
2018-05-07T09:21:39.120Z,29.52
2018-05-07T09:22:39.162Z,29.33
2018-05-07T09:23:39.196Z,29.33
2018-05-07T09:24:39.268Z,29.51
2018-05-07T09:25:39.258Z,29.57
2018-05-07T09:26:39.293Z,29.29
2018-05-07T09:27:39.314Z,28.92
2018-05-07T09:28:39.353Z,29.18
2018-05-07T09:29:39.383Z,29.76
2018-05-07T09:30:39.408Z,29.97
2018-05-07T09:31:39.527Z,30.13
2018-05-07T09:32:39.479Z,30.34
2018-05-07T09:33:39.510Z,30.71
2018-05-07T09:34:39.552Z,30.06
2018-05-07T09:35:39.573Z,28.86
2018-05-07T09:36:39.610Z,28.43
2018-05-07T09:37:39.637Z,28.33
2018-05-07T09:38:39.679Z,28.57
2018-05-07T09:39:39.707Z,29.01
2018-05-07T09:40:39.741Z,29.32
2018-05-07T09:41:39.770Z,29.97
2018-05-07T09:42:39.804Z,30.32
2018-05-07T09:43:39.829Z,30.25
2018-05-07T09:44:39.868Z,30.18
2018-05-07T09:45:39.893Z,29.43
2018-05-07T09:46:39.942Z,29.70
2018-05-07T09:47:39.962Z,30.06
2018-05-07T09:48:39.988Z,29.63
2018-05-07T09:49:40.029Z,29.51
2018-05-07T09:50:40.060Z,29.36
2018-05-07T09:51:40.090Z,29.06
2018-05-07T09:52:40.125Z,29.11
2018-05-07T09:53:40.155Z,29.03
2018-05-07T09:54:40.189Z,29.28
2018-05-07T09:55:40.215Z,29.89
2018-05-07T09:56:40.326Z,30.24
2018-05-07T09:57:40.288Z,30.57
2018-05-07T09:58:40.313Z,30.82
2018-05-07T09:59:40.354Z,30.14
2018-05-07T10:00:40.384Z,30.07
2018-05-07T10:01:40.415Z,30.45
2018-05-07T10:02:40.443Z,30.69
2018-05-07T10:03:40.485Z,30.48
2018-05-07T10:04:40.511Z,31.03
2018-05-07T10:05:40.547Z,31.13
2018-05-07T10:06:40.583Z,31.16
2018-05-07T10:07:40.604Z,31.26
2018-05-07T10:08:40.641Z,31.16
2018-05-07T10:09:40.677Z,31.19
2018-05-07T10:10:40.712Z,31.00
2018-05-07T10:11:40.742Z,31.00
2018-05-07T10:12:40.769Z,31.12
2018-05-07T10:13:40.808Z,31.16
2018-05-07T10:14:40.843Z,31.31
2018-05-07T10:15:40.864Z,31.45
2018-05-07T10:16:40.907Z,31.38
2018-05-07T10:17:40.934Z,31.59
2018-05-07T10:18:40.967Z,31.58
2018-05-07T10:19:41.003Z,31.52
2018-05-07T10:20:41.030Z,30.97
2018-05-07T10:21:41.070Z,30.13
2018-05-07T10:22:41.101Z,30.62
2018-05-07T10:23:41.150Z,30.79
2018-05-07T10:24:41.168Z,30.77
2018-05-07T10:25:41.193Z,30.97
2018-05-07T10:26:41.230Z,31.40
2018-05-07T10:27:41.265Z,31.53
2018-05-07T10:28:41.298Z,31.59
2018-05-07T10:29:41.340Z,31.41
2018-05-07T10:30:41.357Z,31.50
2018-05-07T10:31:41.400Z,31.47
2018-05-07T10:32:41.424Z,31.16
2018-05-07T10:33:41.466Z,31.08
2018-05-07T10:34:41.491Z,31.03
2018-05-07T10:35:41.533Z,31.33
2018-05-07T10:36:41.564Z,31.50
2018-05-07T10:37:41.595Z,30.99
2018-05-07T10:38:41.631Z,31.21
2018-05-07T10:39:41.665Z,31.06
2018-05-07T10:40:41.688Z,31.53
2018-05-07T10:41:41.729Z,31.59
2018-05-07T10:42:41.765Z,31.31
2018-05-07T10:43:41.792Z,31.18
2018-05-07T10:44:41.824Z,31.08
2018-05-07T10:45:41.855Z,31.25
2018-05-07T10:46:41.893Z,31.59
2018-05-07T10:47:41.925Z,31.77
2018-05-07T10:48:41.955Z,32.49
2018-05-07T10:49:41.996Z,32.46
2018-05-07T10:50:42.024Z,31.65
2018-05-07T10:51:42.063Z,31.82
2018-05-07T10:52:42.091Z,31.80
2018-05-07T10:53:42.126Z,31.97
2018-05-07T10:54:42.162Z,32.03
2018-05-07T10:55:42.187Z,31.93
2018-05-07T10:56:42.226Z,32.08
2018-05-07T10:57:42.251Z,32.31
2018-05-07T10:58:42.289Z,32.16
2018-05-07T10:59:42.319Z,32.57
2018-05-07T11:00:42.349Z,32.28
2018-05-07T11:01:42.426Z,31.90
2018-05-07T11:02:42.422Z,32.42
2018-05-07T11:03:42.452Z,32.37
2018-05-07T11:04:42.484Z,32.35
2018-05-07T11:05:42.525Z,32.27
2018-05-07T11:06:42.556Z,32.37
2018-05-07T11:07:42.586Z,32.83
2018-05-07T11:08:42.623Z,32.98
2018-05-07T11:09:42.649Z,32.94
2018-05-07T11:10:42.685Z,32.83
2018-05-07T11:11:42.722Z,32.80
2018-05-07T11:12:42.789Z,32.39
2018-05-07T11:13:42.786Z,32.13
2018-05-07T11:14:42.822Z,32.45
2018-05-07T11:15:42.858Z,31.28
2018-05-07T11:16:42.884Z,31.16
2018-05-07T11:17:42.915Z,31.22
2018-05-07T11:18:42.954Z,31.19
2018-05-07T11:19:43.055Z,31.25
2018-05-07T11:20:43.019Z,31.81
2018-05-07T11:21:43.055Z,31.78
2018-05-07T11:22:43.085Z,31.95
2018-05-07T11:23:43.122Z,31.90
2018-05-07T11:24:43.153Z,30.97
2018-05-07T11:25:43.185Z,30.86
2018-05-07T11:26:43.221Z,30.91
2018-05-07T11:27:43.251Z,29.79
2018-05-07T11:28:43.284Z,30.54
2018-05-07T11:29:43.321Z,31.19
2018-05-07T11:30:43.350Z,31.22
2018-05-07T11:31:43.384Z,31.71
2018-05-07T11:32:43.419Z,31.30
2018-05-07T11:33:43.502Z,31.16
2018-05-07T11:34:44.230Z,31.55
2018-05-07T11:35:43.597Z,31.77
2018-05-07T11:36:43.599Z,31.43
2018-05-07T11:37:44.164Z,31.49
2018-05-07T11:38:44.027Z,31.30
2018-05-07T11:39:43.808Z,30.64
2018-05-07T11:40:44.579Z,30.40
2018-05-07T11:41:43.772Z,29.88
2018-05-07T11:42:44.165Z,30.34
2018-05-07T11:43:43.918Z,30.31
2018-05-07T11:44:43.852Z,30.28
2018-05-07T11:45:44.110Z,30.13
2018-05-07T11:46:43.950Z,30.48
2018-05-07T11:47:44.577Z,30.97
2018-05-07T11:48:44.000Z,30.73
2018-05-07T11:49:44.012Z,31.22
2018-05-07T11:50:44.055Z,31.62
2018-05-07T11:51:44.697Z,31.74
2018-05-07T11:52:44.662Z,31.91
2018-05-07T11:53:44.791Z,32.10
2018-05-07T11:54:44.657Z,31.37
2018-05-07T11:55:44.870Z,30.78
2018-05-07T11:56:44.887Z,30.97
2018-05-07T11:57:44.851Z,30.62
2018-05-07T11:58:44.809Z,30.99
2018-05-07T11:59:44.344Z,31.34
2018-05-07T12:00:44.858Z,31.63
2018-05-07T12:01:45.140Z,31.60
2018-05-07T12:02:44.904Z,31.13
2018-05-07T12:03:45.527Z,31.34
2018-05-07T12:04:45.004Z,31.53
2018-05-07T12:05:44.588Z,31.40
2018-05-07T12:06:45.122Z,31.45
2018-05-07T12:07:44.601Z,31.58
2018-05-07T12:08:44.643Z,32.03
2018-05-07T12:09:45.254Z,31.68
2018-05-07T12:10:44.694Z,31.93
2018-05-07T12:11:45.084Z,31.90
2018-05-07T12:12:45.292Z,31.56
2018-05-07T12:13:44.848Z,31.38
2018-05-07T12:14:45.359Z,31.44
2018-05-07T12:15:44.908Z,31.49
2018-05-07T12:16:45.352Z,31.44
2018-05-07T12:17:45.264Z,31.50
2018-05-07T12:18:45.395Z,31.56
2018-05-07T12:19:45.381Z,31.56
2018-05-07T12:20:45.453Z,31.67
2018-05-07T12:21:45.160Z,32.01
2018-05-07T12:22:45.601Z,30.99
2018-05-07T12:23:45.686Z,30.37
2018-05-07T12:24:45.685Z,30.34
2018-05-07T12:25:45.757Z,30.60
2018-05-07T12:26:45.246Z,31.15
2018-05-07T12:27:45.213Z,31.30
2018-05-07T12:28:45.242Z,31.33
2018-05-07T12:29:45.265Z,31.71
2018-05-07T12:30:45.310Z,31.68
2018-05-07T12:31:45.443Z,32.00
2018-05-07T12:32:45.369Z,31.70
2018-05-07T12:33:45.399Z,31.88
2018-05-07T12:34:45.427Z,32.03
2018-05-07T12:35:45.470Z,32.53
2018-05-07T12:36:45.500Z,32.13
2018-05-07T12:37:45.538Z,32.49
2018-05-07T12:38:45.558Z,32.09
2018-05-07T12:39:45.593Z,31.47
2018-05-07T12:40:45.621Z,30.56
2018-05-07T12:41:45.658Z,30.45
2018-05-07T12:42:45.703Z,30.96
2018-05-07T12:43:45.721Z,30.94
2018-05-07T12:44:45.754Z,30.32
2018-05-07T12:45:45.782Z,30.70
2018-05-07T12:46:45.879Z,30.67
2018-05-07T12:47:45.847Z,30.71
2018-05-07T12:48:45.879Z,30.97
2018-05-07T12:49:45.913Z,31.31
2018-05-07T12:50:45.947Z,31.60
2018-05-07T12:51:46.024Z,31.93
2018-05-07T12:52:46.059Z,31.93